Time;durP1;ratioP1;P1;durP2;ratioP2;P2;SDS_P1;SDS_P2;PMS_P1;PMS_P2;Temp;Humidity;BMP_temperature;BMP_pressure;BME280_temperature;BME280_humidity;BME280_pressure;Samples;Min_cycle;Max_cycle;Signal;HPM_P1;HPM_P2
2021/01/13 00:03:10;;;;;;;60.72;21.08;;;1.50;99.90;;;;;;8294750;28;20432;-67
2021/01/13 00:07:13;;;;;;;54.55;19.70;;;1.30;99.90;;;;;;8294855;28;20029;-68
2021/01/13 00:11:17;;;;;;;59.22;20.80;;;1.40;99.90;;;;;;8294676;28;20107;-68
2021/01/13 00:15:17;;;;;;;60.72;21.17;;;1.40;99.90;;;;;;8294324;28;20535;-67
2021/01/13 00:19:19;;;;;;;62.05;21.00;;;1.60;99.90;;;;;;8318289;28;20025;-67
2021/01/13 00:23:19;;;;;;;61.60;20.63;;;1.60;99.90;;;;;;8326845;28;20064;-68
2021/01/13 00:27:21;;;;;;;59.92;20.88;;;1.30;99.90;;;;;;8358878;28;20491;-68
2021/01/13 00:31:22;;;;;;;27.38;10.98;;;1.40;99.90;;;;;;8326289;28;20032;-68
2021/01/13 00:35:22;;;;;;;;;;;1.20;99.90;;;;;;8327077;28;20018;-66
2021/01/13 00:39:23;;;;;;;;;;;1.20;99.90;;;;;;8327054;28;20058;-67
2021/01/13 00:43:23;;;;;;;88.60;20.50;;;1.10;99.90;;;;;;8324166;28;20500;-68
2021/01/13 00:47:24;;;;;;;78.35;23.95;;;1.00;99.90;;;;;;8324971;28;20021;-68
2021/01/13 00:51:32;;;;;;;78.82;23.92;;;1.20;99.90;;;;;;8294787;28;20038;-68
2021/01/13 00:55:33;;;;;;;78.25;23.58;;;1.20;99.90;;;;;;8293428;28;20033;-67
2021/01/13 00:59:33;;;;;;;79.90;24.13;;;1.20;99.90;;;;;;8293249;28;20034;-67
2021/01/13 01:03:33;;;;;;;80.10;24.20;;;1.40;99.90;;;;;;8292960;28;20041;-67
2021/01/13 01:07:40;;;;;;;80.13;23.83;;;1.00;99.90;;;;;;8291794;28;20040;-67
2021/01/13 01:11:41;;;;;;;80.60;23.48;;;0.70;99.90;;;;;;8318263;28;20068;-67
2021/01/13 01:15:42;;;;;;;83.22;25.52;;;0.40;99.90;;;;;;8324606;28;20045;-67
2021/01/13 01:19:42;;;;;;;81.85;24.15;;;0.30;99.90;;;;;;8320956;28;20017;-67
2021/01/13 01:23:43;;;;;;;81.85;23.58;;;0.20;99.90;;;;;;8325131;28;20033;-68
2021/01/13 01:27:45;;;;;;;81.60;23.35;;;0.20;99.90;;;;;;8323754;28;20061;-67
2021/01/13 01:31:50;;;;;;;87.95;24.15;;;0.10;99.90;;;;;;8324660;28;20642;-68
2021/01/13 01:35:51;;;;;;;82.38;23.33;;;-0.10;99.90;;;;;;8324744;28;20141;-68
2021/01/13 01:39:52;;;;;;;83.55;23.33;;;0.00;99.90;;;;;;8324686;28;20028;-68
2021/01/13 01:43:52;;;;;;;84.25;23.58;;;-0.30;99.90;;;;;;8324093;28;20169;-68
2021/01/13 01:48:16;;;;;;;84.78;22.55;;;-0.40;99.90;;;;;;8324578;28;20039;-67
2021/01/13 01:52:17;;;;;;;76.25;22.00;;;-0.50;99.90;;;;;;8323069;28;20033;-67
2021/01/13 01:56:23;;;;;;;;;;;-0.60;99.90;;;;;;8324831;28;20033;-68
2021/01/13 02:00:31;;;;;;;86.25;20.30;;;-0.80;99.90;;;;;;8323523;28;20780;-68
2021/01/13 02:04:32;;;;;;;83.95;23.05;;;-0.60;99.90;;;;;;8290565;28;20093;-67
2021/01/13 02:08:40;;;;;;;74.15;22.73;;;-0.80;99.90;;;;;;8291665;28;20036;-68
2021/01/13 02:12:51;;;;;;;54.75;19.52;;;-1.10;99.90;;;;;;8291394;28;20172;-68
2021/01/13 02:16:57;;;;;;;83.43;23.30;;;-0.90;99.90;;;;;;8291205;28;20030;-68
2021/01/13 02:21:02;;;;;;;42.75;14.52;;;-0.90;99.90;;;;;;8318161;28;20112;-68
2021/01/13 02:25:12;;;;;;;2.53;2.42;;;-1.00;99.90;;;;;;8322611;28;20109;-68
2021/01/13 02:29:19;;;;;;;;;;;-1.20;99.90;;;;;;8322863;28;20057;-67
2021/01/13 02:33:32;;;;;;;;;;;-1.10;99.90;;;;;;8322717;28;19920;-68
2021/01/13 02:37:32;;;;;;;;;;;-1.50;99.90;;;;;;8324075;28;19912;-69
2021/01/13 02:41:40;;;;;;;;;;;-1.60;99.90;;;;;;8323919;28;19913;-69
2021/01/13 02:45:41;;;;;;;;;;;-1.60;99.90;;;;;;8323011;28;19986;-69
2021/01/13 02:49:48;;;;;;;;;;;-1.60;99.90;;;;;;8306748;28;19909;-69
2021/01/13 02:53:54;;;;;;;;;;;-1.70;99.90;;;;;;8323361;28;19910;-68
2021/01/13 02:57:56;;;;;;;;;;;-1.70;99.90;;;;;;8297133;28;19910;-69
2021/01/13 03:01:57;;;;;;;;;;;-1.60;99.90;;;;;;8295867;28;19945;-69
2021/01/13 03:06:07;;;;;;;;;;;-1.50;99.90;;;;;;8298927;28;19905;-68
2021/01/13 03:10:11;;;;;;;;;;;-1.40;99.90;;;;;;8327192;28;19909;-69
2021/01/13 03:14:12;;;;;;;;;;;-1.20;99.90;;;;;;8327340;28;20433;-69
2021/01/13 03:18:19;;;;;;;;;;;-1.30;99.90;;;;;;8325969;28;19905;-69
2021/01/13 03:22:25;;;;;;;;;;;-1.40;99.90;;;;;;8328366;28;19962;-69
2021/01/13 03:26:30;;;;;;;;;;;-1.20;99.90;;;;;;8329345;28;19905;-70
2021/01/13 03:30:31;;;;;;;;;;;-1.40;99.90;;;;;;8328548;28;19909;-68
2021/01/13 03:34:34;;;;;;;;;;;-1.50;99.90;;;;;;8328897;28;19920;-69
2021/01/13 03:38:37;;;;;;;;;;;-1.10;99.90;;;;;;8327501;28;20486;-69
2021/01/13 03:42:40;;;;;;;;;;;-1.30;99.90;;;;;;8328539;28;20003;-70
2021/01/13 03:46:41;;;;;;;;;;;-1.40;99.90;;;;;;8328528;28;19905;-68
2021/01/13 03:50:43;;;;;;;;;;;-1.40;99.90;;;;;;8328370;28;20344;-70
2021/01/13 03:54:44;;;;;;;;;;;-1.10;99.90;;;;;;8327074;28;19909;-69
2021/01/13 03:58:50;;;;;;;;;;;-0.80;99.90;;;;;;8328183;28;20370;-69
2021/01/13 04:02:55;;;;;;;;;;;-0.80;99.90;;;;;;8328035;28;20376;-68
2021/01/13 04:07:00;;;;;;;;;;;-0.80;99.90;;;;;;8327743;28;20291;-69
2021/01/13 04:11:01;;;;;;;;;;;-0.70;99.90;;;;;;8326547;28;20426;-69
2021/01/13 04:15:02;;;;;;;;;;;-0.60;99.90;;;;;;8327910;28;19924;-69
2021/01/13 04:19:03;;;;;;;;;;;-0.30;99.90;;;;;;8315452;28;19935;-69
2021/01/13 04:23:05;;;;;;;;;;;-0.20;99.90;;;;;;8294799;28;19967;-70
2021/01/13 04:27:06;;;;;;;;;;;-0.30;99.90;;;;;;8294764;28;20055;-69
2021/01/13 04:31:07;;;;;;;;;;;-0.40;99.90;;;;;;8303131;28;19913;-69
2021/01/13 04:35:08;;;;;;;;;;;-0.30;99.90;;;;;;8327517;28;19953;-69
2021/01/13 04:39:09;;;;;;;;;;;-0.40;99.90;;;;;;8326732;28;19921;-68
2021/01/13 04:43:11;;;;;;;;;;;-0.50;99.90;;;;;;8339661;28;19968;-70
2021/01/13 04:47:12;;;;;;;;;;;-0.20;99.90;;;;;;8342735;28;19913;-69
2021/01/13 04:51:14;;;;;;;;;;;-0.20;99.90;;;;;;8340148;28;19913;-69
2021/01/13 04:55:21;;;;;;;;;;;-0.20;99.90;;;;;;8324351;28;19918;-69
2021/01/13 04:59:31;;;;;;;;;;;-0.30;99.90;;;;;;8326783;28;19909;-69
2021/01/13 05:03:40;;;;;;;;;;;-0.10;99.90;;;;;;8326914;28;19935;-69
2021/01/13 05:07:41;;;;;;;;;;;-0.30;99.90;;;;;;8326203;28;19952;-69
2021/01/13 05:11:43;;;;;;;;;;;-0.30;99.90;;;;;;8325705;28;19916;-69
2021/01/13 05:15:55;;;;;;;;;;;-0.50;99.90;;;;;;8325733;28;19943;-69
2021/01/13 05:20:04;;;;;;;;;;;-0.60;99.90;;;;;;8325086;28;19952;-70
2021/01/13 05:24:06;;;;;;;;;;;-0.40;99.90;;;;;;8324673;28;20463;-70
2021/01/13 05:28:14;;;;;;;;;;;-0.30;99.90;;;;;;8326271;28;19917;-69
2021/01/13 05:32:14;;;;;;;;;;;-0.20;99.90;;;;;;8325464;28;19963;-69
2021/01/13 05:36:17;;;;;;;;;;;-0.20;99.90;;;;;;8323857;28;19945;-69
2021/01/13 05:40:18;;;;;;;;;;;-0.30;99.90;;;;;;8325201;28;20064;-70
2021/01/13 05:44:20;;;;;;;;;;;-0.40;99.90;;;;;;8323473;28;19913;-69
2021/01/13 05:48:21;;;;;;;;;;;-0.60;99.90;;;;;;8323096;28;20457;-69
2021/01/13 05:52:28;;;;;;;;;;;-0.50;99.90;;;;;;8323505;28;19913;-70
2021/01/13 05:56:28;;;;;;;;;;;-0.20;99.90;;;;;;8354681;28;19909;-69
2021/01/13 06:00:32;;;;;;;;;;;-0.30;99.90;;;;;;8323792;28;20552;-70
2021/01/13 06:04:35;;;;;;;;;;;-0.30;99.90;;;;;;8325557;28;20533;-70
2021/01/13 06:08:39;;;;;;;;;;;-0.20;99.90;;;;;;8357536;28;19948;-69
2021/01/13 06:12:44;;;;;;;;;;;-0.20;99.90;;;;;;8325417;28;20399;-70
2021/01/13 06:16:47;;;;;;;;;;;-0.20;99.90;;;;;;8325297;28;19967;-69
2021/01/13 06:20:48;;;;;;;;;;;-0.30;99.90;;;;;;8332328;28;19975;-69
2021/01/13 06:24:49;;;;;;;;;;;-0.30;99.90;;;;;;8310000;28;20438;-70
2021/01/13 06:29:25;;;;;;;;;;;-0.10;99.90;;;;;;8324788;28;19913;-70
2021/01/13 06:33:32;;;;;;;;;;;-0.10;99.90;;;;;;8279473;28;20306;-70
2021/01/13 06:37:37;;;;;;;;;;;-0.20;99.90;;;;;;8328712;28;20388;-68
2021/01/13 06:41:45;;;;;;;;;;;-0.30;99.90;;;;;;8326685;28;19945;-69
2021/01/13 06:45:46;;;;;;;;;;;-0.20;99.90;;;;;;8327697;28;20007;-69
2021/01/13 06:49:49;;;;;;;;;;;-0.40;99.90;;;;;;8337561;28;19967;-69
2021/01/13 06:53:50;;;;;;;;;;;-0.50;99.90;;;;;;8329495;28;20063;-70
2021/01/13 06:57:52;;;;;;;;;;;-0.30;99.90;;;;;;8330658;28;19967;-70
2021/01/13 07:01:52;;;;;;;;;;;-0.40;99.90;;;;;;8328757;28;20276;-69
2021/01/13 07:05:53;;;;;;;;;;;-0.60;99.90;;;;;;8330157;28;19913;-70
2021/01/13 07:09:54;;;;;;;;;;;-0.70;99.90;;;;;;8330171;28;19923;-69
2021/01/13 07:13:55;;;;;;;;;;;-0.70;99.90;;;;;;8327961;28;19932;-69
2021/01/13 07:17:56;;;;;;;;;;;-0.80;99.90;;;;;;8327193;28;19917;-70
2021/01/13 07:21:57;;;;;;;;;;;-0.80;99.90;;;;;;8328711;28;19913;-70
2021/01/13 07:25:59;;;;;;;;;;;-0.90;99.90;;;;;;8327038;28;19913;-70
2021/01/13 07:30:00;;;;;;;;;;;-0.80;99.90;;;;;;8322195;28;20002;-69
2021/01/13 07:34:23;;;;;;;;;;;-0.70;99.90;;;;;;8329940;28;19913;-70
2021/01/13 07:38:28;;;;;;;;;;;-0.40;99.90;;;;;;8322207;28;19920;-69
2021/01/13 07:42:40;;;;;;;25.80;24.60;;;-0.20;99.90;;;;;;8326463;28;19909;-69
2021/01/13 07:46:55;;;;;;;2.65;2.28;;;-0.20;99.90;;;;;;8326034;28;20017;-70
2021/01/13 07:51:05;;;;;;;;;;;-0.10;99.90;;;;;;8323855;28;20018;-69
2021/01/13 07:55:13;;;;;;;;;;;0.10;99.90;;;;;;8325900;28;19913;-69
2021/01/13 07:59:34;;;;;;;;;;;0.30;99.90;;;;;;8327823;28;20433;-69
2021/01/13 08:03:46;;;;;;;;;;;0.40;99.90;;;;;;8326392;28;19921;-70
2021/01/13 08:08:05;;;;;;;59.60;19.10;;;0.50;99.90;;;;;;8324417;28;20413;-71
2021/01/13 08:12:07;;;;;;;;;;;0.50;99.90;;;;;;8327746;28;20040;-72
2021/01/13 08:16:10;;;;;;;;;;;0.70;99.90;;;;;;8326297;28;19920;-72
2021/01/13 08:20:33;;;;;;;82.35;20.50;;;0.60;99.90;;;;;;8324295;28;20459;-71
2021/01/13 08:24:40;;;;;;;78.47;22.60;;;0.70;99.90;;;;;;8325660;28;20045;-73
2021/01/13 08:28:51;;;;;;;78.60;22.55;;;0.90;99.90;;;;;;8357458;28;20039;-71
2021/01/13 08:32:55;;;;;;;72.57;22.35;;;1.20;99.90;;;;;;8324512;28;20041;-72
2021/01/13 08:36:56;;;;;;;73.18;22.05;;;1.20;99.90;;;;;;8318021;28;20491;-72
2021/01/13 08:41:20;;;;;;;74.82;22.15;;;1.30;99.90;;;;;;8327010;28;20028;-72
2021/01/13 08:45:45;;;;;;;71.70;22.15;;;0.90;99.90;;;;;;8326624;28;20037;-72
2021/01/13 08:49:46;;;;;;;63.40;22.38;;;1.20;99.90;;;;;;8325125;28;20114;-72
2021/01/13 08:53:47;;;;;;;;;;;1.30;99.90;;;;;;8324899;28;20030;-72
2021/01/13 08:57:52;;;;;;;;;;;1.50;99.90;;;;;;8325009;28;20115;-73
2021/01/13 09:01:56;;;;;;;334.48;313.60;;;1.40;99.90;;;;;;8322890;28;20504;-72
2021/01/13 09:06:07;;;;;;;278.50;260.87;;;1.50;99.90;;;;;;8319518;28;20029;-72
2021/01/13 09:10:11;;;;;;;272.70;255.57;;;1.60;99.90;;;;;;8326377;28;20052;-72
2021/01/13 09:14:27;;;;;;;96.93;75.93;;;1.80;99.90;;;;;;8325407;28;20021;-73
2021/01/13 09:18:31;;;;;;;157.57;141.87;;;1.90;99.90;;;;;;8322011;28;20021;-72
2021/01/13 09:22:50;;;;;;;87.28;25.42;;;1.90;99.90;;;;;;8324560;28;20038;-72
2021/01/13 09:26:53;;;;;;;158.77;130.43;;;1.80;99.90;;;;;;8322417;28;20517;-72
2021/01/13 09:31:11;;;;;;;154.03;127.87;;;1.70;99.90;;;;;;8323247;28;20052;-72
2021/01/13 09:35:25;;;;;;;121.80;71.57;;;2.00;99.90;;;;;;8318719;28;20634;-72
2021/01/13 09:39:38;;;;;;;115.93;62.17;;;2.70;99.90;;;;;;8323208;28;20037;-72
2021/01/13 09:43:46;;;;;;;85.28;24.15;;;3.60;99.90;;;;;;8322843;28;20545;-72
2021/01/13 09:47:46;;;;;;;83.28;24.38;;;3.70;99.90;;;;;;8324580;28;20026;-73
2021/01/13 09:51:47;;;;;;;84.03;23.95;;;3.60;99.90;;;;;;8322163;28;20111;-72
2021/01/13 09:55:49;;;;;;;82.38;23.83;;;3.50;99.90;;;;;;8323939;28;20075;-73
2021/01/13 10:00:09;;;;;;;85.97;24.40;;;3.30;99.90;;;;;;8323819;28;20032;-72
2021/01/13 10:04:12;;;;;;;101.50;43.03;;;3.30;99.90;;;;;;8325688;28;20033;-72
2021/01/13 10:08:12;;;;;;;83.85;24.17;;;3.00;99.90;;;;;;8331555;28;20038;-73
2021/01/13 10:12:13;;;;;;;83.18;23.80;;;2.90;99.90;;;;;;8331804;28;20508;-72
2021/01/13 10:16:14;;;;;;;88.28;30.15;;;3.00;99.90;;;;;;8329784;28;20693;-73
2021/01/13 10:20:16;;;;;;;84.45;24.65;;;3.20;99.90;;;;;;8330118;28;20029;-72
2021/01/13 10:24:18;;;;;;;83.55;24.00;;;3.10;99.90;;;;;;8330352;28;20021;-72
2021/01/13 10:28:19;;;;;;;81.47;24.20;;;2.80;99.90;;;;;;8329157;28;20033;-73
2021/01/13 10:32:19;;;;;;;80.47;23.52;;;2.90;99.90;;;;;;8328600;28;20041;-73
2021/01/13 10:36:32;;;;;;;86.78;25.23;;;2.80;99.90;;;;;;8327226;28;20044;-72
2021/01/13 10:40:33;;;;;;;83.70;24.30;;;2.70;99.90;;;;;;8329989;28;20022;-73
2021/01/13 10:44:34;;;;;;;91.25;29.17;;;2.50;99.90;;;;;;8329101;28;20542;-73
2021/01/13 10:48:43;;;;;;;86.32;24.55;;;2.40;99.90;;;;;;8329623;28;20538;-73
2021/01/13 10:52:45;;;;;;;84.68;24.52;;;2.40;99.90;;;;;;8328928;28;20125;-73
2021/01/13 10:56:54;;;;;;;85.43;24.33;;;2.30;99.90;;;;;;8330570;28;20503;-73
2021/01/13 11:01:04;;;;;;;93.95;30.73;;;2.30;99.90;;;;;;8328840;28;20037;-73
2021/01/13 11:05:06;;;;;;;89.93;23.02;;;2.20;99.90;;;;;;8323660;28;20040;-73
2021/01/13 11:09:08;;;;;;;87.55;22.55;;;2.20;99.90;;;;;;8328859;28;20131;-72
2021/01/13 11:13:09;;;;;;;118.88;64.47;;;2.30;99.90;;;;;;8327309;28;20033;-73
2021/01/13 11:17:14;;;;;;;161.43;134.57;;;2.40;99.90;;;;;;8320157;28;20392;-72
2021/01/13 11:21:15;;;;;;;60.43;28.47;;;2.50;99.90;;;;;;8328875;28;20061;-73
2021/01/13 11:25:30;;;;;;;65.10;21.63;;;2.70;99.90;;;;;;8329125;28;20075;-74
2021/01/13 11:29:33;;;;;;;65.60;21.88;;;3.00;99.90;;;;;;8327542;28;20033;-73
2021/01/13 11:33:33;;;;;;;65.10;21.95;;;3.00;99.90;;;;;;8327423;28;20025;-73
2021/01/13 11:37:47;;;;;;;63.67;21.45;;;2.80;99.90;;;;;;8322754;28;20068;-73
2021/01/13 11:42:19;;;;;;;65.57;22.23;;;2.70;99.90;;;;;;8325568;28;20517;-73
2021/01/13 11:46:29;;;;;;;67.20;22.25;;;2.80;99.90;;;;;;8325908;28;20056;-73
2021/01/13 11:50:33;;;;;;;69.95;22.38;;;3.20;99.90;;;;;;8309683;28;20474;-73
2021/01/13 11:54:35;;;;;;;71.05;22.27;;;3.40;99.90;;;;;;8327994;28;20040;-73
2021/01/13 11:58:44;;;;;;;68.97;38.75;;;3.50;99.90;;;;;;8328065;28;20435;-73
2021/01/13 12:02:50;;;;;;;76.00;22.60;;;4.10;99.90;;;;;;8327825;28;20124;-74
2021/01/13 12:06:56;;;;;;;78.75;23.08;;;4.80;99.90;;;;;;8337731;28;20021;-73
2021/01/13 12:10:57;;;;;;;76.13;22.48;;;4.90;99.90;;;;;;8326444;28;20029;-74
2021/01/13 12:15:04;;;;;;;76.53;22.45;;;4.70;99.90;;;;;;8326021;28;20124;-73
2021/01/13 12:19:04;;;;;;;79.28;22.95;;;4.90;99.90;;;;;;8327909;28;20122;-73
2021/01/13 12:23:38;;;;;;;80.28;22.75;;;5.20;99.90;;;;;;8326520;28;20030;-73
2021/01/13 12:27:38;;;;;;;80.78;22.85;;;6.20;99.90;;;;;;8314663;28;20026;-73
2021/01/13 12:31:41;;;;;;;81.03;22.55;;;6.10;99.90;;;;;;8325674;28;20611;-74
2021/01/13 12:35:41;;;;;;;77.93;22.58;;;6.40;99.90;;;;;;8326337;28;20032;-70
2021/01/13 12:39:43;;;;;;;79.78;22.80;;;5.40;99.90;;;;;;8325684;28;20484;-71
2021/01/13 12:43:43;;;;;;;81.28;22.55;;;6.10;99.90;;;;;;8325593;28;20036;-70
2021/01/13 12:47:53;;;;;;;68.03;20.92;;;8.00;99.90;;;;;;8323774;28;20033;-71
2021/01/13 12:51:56;;;;;;;76.15;53.78;;;9.20;99.90;;;;;;8323343;28;20056;-72
2021/01/13 12:55:56;;;;;;;306.13;287.98;;;10.60;99.90;;;;;;8321575;28;20017;-72
2021/01/13 12:59:57;;;;;;;113.13;103.05;;;11.10;97.50;;;;;;8324283;28;20028;-72
2021/01/13 13:03:57;;;;;;;208.35;194.70;;;8.30;99.60;;;;;;8324912;28;20060;-71
2021/01/13 13:07:58;;;;;;;80.60;30.98;;;5.90;99.90;;;;;;8325741;28;20033;-72
2021/01/13 13:11:58;;;;;;;79.50;26.45;;;5.20;99.90;;;;;;8325034;28;20032;-72
2021/01/13 13:15:59;;;;;;;52.88;20.00;;;7.60;99.90;;;;;;8318097;28;20447;-72
2021/01/13 13:19:59;;;;;;;49.63;18.88;;;9.30;99.90;;;;;;8325461;28;20456;-72
2021/01/13 13:24:00;;;;;;;58.78;21.23;;;9.50;99.90;;;;;;8324309;28;20034;-73
2021/01/13 13:28:00;;;;;;;59.65;22.08;;;7.40;99.90;;;;;;8323699;28;20419;-73
2021/01/13 13:32:01;;;;;;;59.47;21.05;;;6.20;99.90;;;;;;8324784;28;20594;-72
2021/01/13 13:36:04;;;;;;;60.78;21.48;;;5.90;99.90;;;;;;8317326;28;20030;-73
2021/01/13 13:40:04;;;;;;;;;;;5.10;99.90;;;;;;8323340;28;20021;-71
2021/01/13 13:44:05;;;;;;;69.07;19.75;;;4.90;99.90;;;;;;8321335;28;20821;-74
2021/01/13 13:48:06;;;;;;;66.05;21.00;;;4.70;99.90;;;;;;8321787;28;20025;-72
2021/01/13 13:52:07;;;;;;;68.25;21.58;;;4.50;99.90;;;;;;8324503;28;20056;-73
2021/01/13 13:56:07;;;;;;;69.50;21.02;;;4.70;99.90;;;;;;8325418;28;20100;-72
2021/01/13 14:00:08;;;;;;;76.68;21.95;;;4.90;99.90;;;;;;8323521;28;20025;-71
2021/01/13 14:04:09;;;;;;;84.50;22.80;;;4.50;99.90;;;;;;8322603;28;20021;-72
2021/01/13 14:08:10;;;;;;;83.75;22.60;;;4.50;99.90;;;;;;8323904;28;20038;-71
2021/01/13 14:12:11;;;;;;;78.65;22.25;;;4.40;99.90;;;;;;8323467;28;20025;-72
2021/01/13 14:16:11;;;;;;;81.18;23.35;;;3.70;99.90;;;;;;8325782;28;20112;-72
2021/01/13 14:20:12;;;;;;;59.10;21.13;;;3.20;99.90;;;;;;8311366;28;20022;-71
2021/01/13 14:24:13;;;;;;;;;;;2.60;99.90;;;;;;8323457;28;20113;-71
2021/01/13 14:28:13;;;;;;;0.00;0.00;;;2.20;99.90;;;;;;8322316;28;20488;-71
2021/01/13 14:32:14;;;;;;;;;;;2.10;99.90;;;;;;8323836;28;20034;-71
2021/01/13 14:36:18;;;;;;;;;;;1.80;99.90;;;;;;8324803;28;20366;-72
2021/01/13 14:40:19;;;;;;;;;;;1.80;99.90;;;;;;8324450;28;20405;-72
2021/01/13 14:44:19;;;;;;;;;;;1.80;99.90;;;;;;8322953;28;20449;-71
2021/01/13 14:48:20;;;;;;;66.73;19.80;;;1.70;99.90;;;;;;8318487;28;20436;-71
2021/01/13 14:52:20;;;;;;;;;;;1.80;99.90;;;;;;8325176;28;20032;-71
2021/01/13 14:56:21;;;;;;;;;;;1.70;99.90;;;;;;8329740;28;19909;-71
2021/01/13 15:00:21;;;;;;;;;;;1.70;99.90;;;;;;8328732;28;19909;-70
2021/01/13 15:04:23;;;;;;;;;;;1.80;99.90;;;;;;8326700;28;20431;-71
2021/01/13 15:08:24;;;;;;;;;;;1.80;99.90;;;;;;8328497;28;19969;-70
2021/01/13 15:12:24;;;;;;;;;;;1.70;99.90;;;;;;8328795;28;19917;-71
2021/01/13 15:16:25;;;;;;;;;;;1.60;99.90;;;;;;8327809;28;19924;-71
2021/01/13 15:20:25;;;;;;;;;;;1.60;99.90;;;;;;8327205;28;19909;-71
2021/01/13 15:24:26;;;;;;;;;;;1.60;99.90;;;;;;8335089;28;19913;-68
2021/01/13 15:28:26;;;;;;;;;;;1.50;99.90;;;;;;8324343;28;19916;-70
2021/01/13 15:32:29;;;;;;;;;;;1.40;99.90;;;;;;8329553;28;20448;-68
2021/01/13 15:36:29;;;;;;;;;;;1.40;99.90;;;;;;8327807;28;20046;-68
2021/01/13 15:40:30;;;;;;;;;;;1.30;99.90;;;;;;8327324;28;19905;-69
2021/01/13 15:44:31;;;;;;;;;;;1.30;99.90;;;;;;8329659;28;19905;-68
2021/01/13 15:48:31;;;;;;;;;;;1.20;99.90;;;;;;8342775;28;19909;-69
2021/01/13 15:52:36;;;;;;;;;;;1.20;99.90;;;;;;8322000;28;20375;-72
2021/01/13 15:56:41;;;;;;;;;;;1.20;99.90;;;;;;8326923;28;19913;-71
2021/01/13 16:00:41;;;;;;;;;;;1.10;99.90;;;;;;8328432;28;19975;-70
2021/01/13 16:04:42;;;;;;;;;;;0.90;99.90;;;;;;8327150;28;19909;-68
2021/01/13 16:08:43;;;;;;;;;;;0.80;99.90;;;;;;8327130;28;19924;-70
2021/01/13 16:12:44;;;;;;;;;;;0.70;99.90;;;;;;8328749;28;19939;-68
2021/01/13 16:16:44;;;;;;;;;;;0.60;99.90;;;;;;8328123;28;19919;-69
2021/01/13 16:20:45;;;;;;;;;;;0.70;99.90;;;;;;8324995;28;19913;-69
2021/01/13 16:24:45;;;;;;;;;;;0.50;99.90;;;;;;8334149;28;19915;-69
2021/01/13 16:28:46;;;;;;;;;;;0.60;99.90;;;;;;8331818;28;20278;-69
2021/01/13 16:32:48;;;;;;;;;;;0.50;99.90;;;;;;8359005;28;19908;-68
2021/01/13 16:36:49;;;;;;;;;;;0.50;99.90;;;;;;8355543;28;19963;-69
2021/01/13 16:40:50;;;;;;;;;;;0.50;99.90;;;;;;8327493;28;19909;-68
2021/01/13 16:44:52;;;;;;;;;;;0.50;99.90;;;;;;8325545;28;19940;-69
2021/01/13 16:48:53;;;;;;;;;;;0.50;99.90;;;;;;8324461;28;20375;-68
2021/01/13 16:52:58;;;;;;;;;;;0.80;99.90;;;;;;8321427;28;19974;-69
2021/01/13 16:56:59;;;;;;;;;;;0.60;99.90;;;;;;8323486;28;20646;-68
2021/01/13 17:01:01;;;;;;;;;;;0.70;99.90;;;;;;8320180;28;19912;-68
2021/01/13 17:05:03;;;;;;;;;;;1.10;99.90;;;;;;8320628;28;19982;-69
2021/01/13 17:09:06;;;;;;;;;;;1.10;99.90;;;;;;8317496;28;19913;-69
2021/01/13 17:13:12;;;;;;;;;;;1.10;99.90;;;;;;8317537;28;19924;-69
2021/01/13 17:17:13;;;;;;;;;;;1.20;99.90;;;;;;8319120;28;19962;-66
2021/01/13 17:21:16;;;;;;;;;;;1.40;99.90;;;;;;8319430;28;19905;-68
2021/01/13 17:25:23;;;;;;;;;;;1.50;99.90;;;;;;8317326;28;20498;-65
2021/01/13 17:29:23;;;;;;;;;;;1.70;99.90;;;;;;8317184;28;19919;-66
2021/01/13 17:33:24;;;;;;;;;;;1.90;99.90;;;;;;8316709;28;19971;-68
2021/01/13 17:37:26;;;;;;;;;;;2.10;99.90;;;;;;8331490;28;19920;-66
2021/01/13 17:41:27;;;;;;;;;;;2.20;99.90;;;;;;8313734;28;19946;-69
2021/01/13 17:45:28;;;;;;;;;;;2.30;99.90;;;;;;8315909;28;19913;-66
2021/01/13 17:49:29;;;;;;;;;;;2.40;99.90;;;;;;8316998;28;19923;-66
2021/01/13 17:53:32;;;;;;;;;;;2.30;99.90;;;;;;8322879;28;19917;-66
2021/01/13 17:57:33;;;;;;;;;;;2.40;99.90;;;;;;8304588;28;19909;-66
2021/01/13 18:01:34;;;;;;;;;;;2.50;99.90;;;;;;8311122;28;20295;-65
2021/01/13 18:05:38;;;;;;;;;;;2.60;99.90;;;;;;8315634;28;20574;-66
2021/01/13 18:09:39;;;;;;;;;;;2.70;99.90;;;;;;8306644;28;19913;-67
2021/01/13 18:13:39;;;;;;;;;;;2.70;99.90;;;;;;8313627;28;20080;-69
2021/01/13 18:17:40;;;;;;;;;;;2.70;99.90;;;;;;8311161;28;20494;-65
2021/01/13 18:21:41;;;;;;;;;;;2.90;99.90;;;;;;8306435;28;20395;-65
2021/01/13 18:25:42;;;;;;;;;;;2.90;99.90;;;;;;8310638;28;20620;-66
2021/01/13 18:29:43;;;;;;;;;;;3.00;99.90;;;;;;8315070;28;19913;-66
2021/01/13 18:33:43;;;;;;;;;;;3.00;99.90;;;;;;8316173;28;19920;-64
2021/01/13 18:37:51;;;;;;;;;;;3.00;99.90;;;;;;8315397;28;19915;-66
2021/01/13 18:41:52;;;;;;;;;;;3.10;99.90;;;;;;8352781;28;19913;-65
2021/01/13 18:45:54;;;;;;;;;;;3.10;99.90;;;;;;8323201;28;19947;-65
2021/01/13 18:49:54;;;;;;;;;;;3.10;99.90;;;;;;8319475;28;20596;-66
2021/01/13 18:53:55;;;;;;;;;;;3.10;99.90;;;;;;8320567;28;19927;-64
2021/01/13 18:57:55;;;;;;;;;;;3.20;99.90;;;;;;8323242;28;19924;-66
2021/01/13 19:01:59;;;;;;;;;;;3.10;99.90;;;;;;8322510;28;20382;-65
2021/01/13 19:05:59;;;;;;;;;;;3.10;99.90;;;;;;8324391;28;20046;-65
2021/01/13 19:10:00;;;;;;;;;;;3.10;99.90;;;;;;8321555;28;19913;-66
2021/01/13 19:14:00;;;;;;;;;;;3.10;99.90;;;;;;8319459;28;20003;-66
2021/01/13 19:18:01;;;;;;;;;;;3.00;99.90;;;;;;8319777;28;19952;-66
2021/01/13 19:22:05;;;;;;;;;;;2.90;99.90;;;;;;8321049;28;20395;-66
2021/01/13 19:26:05;;;;;;;;;;;2.80;99.90;;;;;;8316205;28;20008;-67
2021/01/13 19:30:07;;;;;;;;;;;2.70;99.90;;;;;;8316971;28;20629;-68
2021/01/13 19:34:10;;;;;;;;;;;2.60;99.90;;;;;;8315341;28;19924;-67
2021/01/13 19:38:10;;;;;;;;;;;2.50;99.90;;;;;;8320478;28;20272;-67
2021/01/13 19:42:11;;;;;;;;;;;2.30;99.90;;;;;;8320598;28;19940;-66
2021/01/13 19:46:11;;;;;;;;;;;2.30;99.90;;;;;;8318731;28;20020;-67
2021/01/13 19:50:13;;;;;;;;;;;2.30;99.90;;;;;;8319079;28;19939;-68
2021/01/13 19:54:20;;;;;;;;;;;2.20;99.90;;;;;;8320252;28;19921;-67
2021/01/13 19:58:20;;;;;;;;;;;2.10;99.90;;;;;;8322273;28;20693;-67
2021/01/13 20:02:20;;;;;;;;;;;2.10;99.90;;;;;;8322196;28;19963;-67
2021/01/13 20:06:21;;;;;;;;;;;2.10;99.90;;;;;;8321661;28;19951;-66
2021/01/13 20:10:24;;;;;;;;;;;2.20;99.90;;;;;;8320320;28;19913;-67
2021/01/13 20:14:24;;;;;;;;;;;2.20;99.90;;;;;;8322950;28;19913;-67
2021/01/13 20:18:24;;;;;;;;;;;2.30;99.90;;;;;;8321721;28;20018;-68
2021/01/13 20:22:25;;;;;;;;;;;2.20;99.90;;;;;;8323126;28;19917;-67
2021/01/13 20:26:25;;;;;;;;;;;2.20;99.90;;;;;;8321342;28;19913;-66
2021/01/13 20:30:27;;;;;;;;;;;2.10;99.90;;;;;;8315529;28;19912;-68
2021/01/13 20:34:29;;;;;;;;;;;2.20;99.90;;;;;;8320982;28;20407;-68
2021/01/13 20:38:30;;;;;;;;;;;2.10;99.90;;;;;;8350467;28;20529;-68
2021/01/13 20:42:30;;;;;;;;;;;1.90;99.90;;;;;;8320399;28;19909;-69
2021/01/13 20:46:31;;;;;;;;;;;2.00;99.90;;;;;;8316916;28;20019;-69
2021/01/13 20:50:32;;;;;;;;;;;2.00;99.90;;;;;;8312090;28;19944;-69
2021/01/13 20:54:32;;;;;;;;;;;2.00;99.90;;;;;;8315957;28;20380;-68
2021/01/13 20:58:36;;;;;;;;;;;2.10;99.90;;;;;;8319275;28;20547;-68
2021/01/13 21:02:36;;;;;;;;;;;1.90;99.90;;;;;;8317193;28;19944;-69
2021/01/13 21:06:38;;;;;;;;;;;1.90;99.90;;;;;;8320328;28;19955;-68
2021/01/13 21:10:38;;;;;;;;;;;2.10;99.90;;;;;;8321500;28;19908;-68
2021/01/13 21:14:39;;;;;;;;;;;2.00;99.90;;;;;;8319917;28;19913;-69
2021/01/13 21:18:39;;;;;;;;;;;2.00;99.90;;;;;;8318968;28;19916;-68
2021/01/13 21:22:41;;;;;;;;;;;1.90;99.90;;;;;;8374682;23;20012;-72
2021/01/13 21:26:41;;;;;;;;;;;1.90;99.90;;;;;;8403484;28;19943;-71
2021/01/13 21:30:42;;;;;;;;;;;1.80;99.90;;;;;;8390787;28;19912;-72
2021/01/13 21:34:42;;;;;;;;;;;1.90;99.90;;;;;;8379246;28;19920;-71
2021/01/13 21:38:44;;;;;;;;;;;1.80;99.90;;;;;;8374127;28;19908;-70
2021/01/13 21:42:49;;;;;;;;;;;1.80;99.90;;;;;;8379567;28;19908;-70
2021/01/13 21:46:54;;;;;;;;;;;1.90;99.90;;;;;;8357199;28;19939;-69
2021/01/13 21:50:55;;;;;;;;;;;1.90;99.90;;;;;;8340988;28;19906;-70
2021/01/13 21:54:55;;;;;;;;;;;1.80;99.90;;;;;;8325386;28;19982;-69
2021/01/13 21:58:56;;;;;;;;;;;1.80;99.90;;;;;;8334954;28;19999;-70
2021/01/13 22:02:57;;;;;;;;;;;1.80;99.90;;;;;;8344506;28;20000;-70
2021/01/13 22:06:57;;;;;;;;;;;1.80;99.90;;;;;;8340649;28;19905;-70
2021/01/13 22:10:58;;;;;;;;;;;1.90;99.90;;;;;;8340887;28;19909;-69
2021/01/13 22:14:58;;;;;;;;;;;1.90;99.90;;;;;;8323870;28;20363;-70
2021/01/13 22:18:59;;;;;;;;;;;2.00;99.90;;;;;;8323845;28;19906;-70
2021/01/13 22:22:59;;;;;;;;;;;1.90;99.90;;;;;;8347666;28;20384;-70
2021/01/13 22:27:00;;;;;;;;;;;1.90;99.90;;;;;;8357917;28;19905;-70
2021/01/13 22:31:00;;;;;;;;;;;1.90;99.90;;;;;;8356650;28;19912;-70
2021/01/13 22:35:01;;;;;;;;;;;1.90;99.90;;;;;;8357249;28;19913;-70